sensor_id;sensor_type;location;lat;lon;timestamp;pressure;altitude;pressure_sealevel;temperature;humidity
31595;BME280;18200;48.726;8.892;2023-06-10T00:03:21;96408.69;;;29.72;31.83
31595;BME280;18200;48.726;8.892;2023-06-10T00:07:24;96403.41;;;30.00;31.36
31595;BME280;18200;48.726;8.892;2023-06-10T00:11:24;96399.19;;;30.41;30.46
31595;BME280;18200;48.726;8.892;2023-06-10T00:15:25;96400.53;;;30.20;30.62
31595;BME280;18200;48.726;8.892;2023-06-10T00:19:25;96401.31;;;30.26;30.56
31595;BME280;18200;48.726;8.892;2023-06-10T00:23:26;96408.25;;;30.42;30.30
31595;BME280;18200;48.726;8.892;2023-06-10T00:27:26;96398.75;;;28.94;33.33
31595;BME280;18200;48.726;8.892;2023-06-10T00:31:31;96400.19;;;29.76;31.97
31595;BME280;18200;48.726;8.892;2023-06-10T00:35:31;96400.03;;;29.90;31.37
31595;BME280;18200;48.726;8.892;2023-06-10T00:39:33;96400.81;;;29.91;31.14
31595;BME280;18200;48.726;8.892;2023-06-10T00:43:34;96399.28;;;29.90;31.56
31595;BME280;18200;48.726;8.892;2023-06-10T00:47:34;96406.88;;;29.95;31.09
31595;BME280;18200;48.726;8.892;2023-06-10T00:51:37;96397.78;;;29.89;31.04
31595;BME280;18200;48.726;8.892;2023-06-10T00:55:37;96401.13;;;29.22;32.09
31595;BME280;18200;48.726;8.892;2023-06-10T00:59:39;96404.84;;;28.98;31.97
31595;BME280;18200;48.726;8.892;2023-06-10T01:03:41;96403.06;;;29.15;32.11
31595;BME280;18200;48.726;8.892;2023-06-10T01:07:56;96399.75;;;28.71;32.11
31595;BME280;18200;48.726;8.892;2023-06-10T01:12:14;96395.44;;;29.10;31.61
31595;BME280;18200;48.726;8.892;2023-06-10T01:16:19;96391.88;;;29.04;32.46
31595;BME280;18200;48.726;8.892;2023-06-10T01:20:19;96395.19;;;28.68;32.26
31595;BME280;18200;48.726;8.892;2023-06-10T01:24:20;96392.09;;;28.46;33.75
31595;BME280;18200;48.726;8.892;2023-06-10T01:28:26;96397.81;;;28.77;33.24
31595;BME280;18200;48.726;8.892;2023-06-10T01:32:33;96394.09;;;28.80;32.78
31595;BME280;18200;48.726;8.892;2023-06-10T01:36:35;96394.72;;;28.90;32.67
31595;BME280;18200;48.726;8.892;2023-06-10T01:40:37;96397.03;;;28.97;32.21
31595;BME280;18200;48.726;8.892;2023-06-10T01:44:39;96404.03;;;29.12;31.82
31595;BME280;18200;48.726;8.892;2023-06-10T01:48:42;96399.66;;;29.06;31.60
31595;BME280;18200;48.726;8.892;2023-06-10T01:52:43;96401.94;;;29.07;32.32
31595;BME280;18200;48.726;8.892;2023-06-10T01:56:43;96407.69;;;28.29;32.91
31595;BME280;18200;48.726;8.892;2023-06-10T02:00:44;96413.72;;;27.84;33.43
31595;BME280;18200;48.726;8.892;2023-06-10T02:04:44;96412.78;;;27.87;34.53
31595;BME280;18200;48.726;8.892;2023-06-10T02:08:45;96416.97;;;27.97;33.24
31595;BME280;18200;48.726;8.892;2023-06-10T02:12:45;96410.88;;;27.63;34.20
31595;BME280;18200;48.726;8.892;2023-06-10T02:16:45;96411.63;;;27.49;34.93
31595;BME280;18200;48.726;8.892;2023-06-10T02:20:46;96412.56;;;28.05;33.75
31595;BME280;18200;48.726;8.892;2023-06-10T02:24:47;96418.94;;;28.25;33.51
31595;BME280;18200;48.726;8.892;2023-06-10T02:28:47;96424.78;;;28.13;33.02
31595;BME280;18200;48.726;8.892;2023-06-10T02:32:48;96427.81;;;27.86;34.03
31595;BME280;18200;48.726;8.892;2023-06-10T02:36:51;96429.16;;;28.05;33.02
31595;BME280;18200;48.726;8.892;2023-06-10T02:40:54;96432.34;;;28.32;32.78
31595;BME280;18200;48.726;8.892;2023-06-10T02:44:56;96431.63;;;27.88;33.13
31595;BME280;18200;48.726;8.892;2023-06-10T02:49:07;96434.28;;;28.12;32.64
31595;BME280;18200;48.726;8.892;2023-06-10T02:53:09;96438.84;;;27.56;34.20
31595;BME280;18200;48.726;8.892;2023-06-10T02:57:12;96432.75;;;27.52;34.02
31595;BME280;18200;48.726;8.892;2023-06-10T03:01:14;96436.56;;;27.70;34.06
31595;BME280;18200;48.726;8.892;2023-06-10T03:05:23;96439.97;;;27.35;33.76
31595;BME280;18200;48.726;8.892;2023-06-10T03:09:26;96433.13;;;27.60;33.42
31595;BME280;18200;48.726;8.892;2023-06-10T03:13:30;96441.72;;;27.62;33.54
31595;BME280;18200;48.726;8.892;2023-06-10T03:17:32;96444.84;;;27.70;33.14
31595;BME280;18200;48.726;8.892;2023-06-10T03:21:36;96449.69;;;27.45;34.39
31595;BME280;18200;48.726;8.892;2023-06-10T03:25:38;96447.88;;;27.42;32.92
31595;BME280;18200;48.726;8.892;2023-06-10T03:29:39;96441.81;;;27.15;33.92
31595;BME280;18200;48.726;8.892;2023-06-10T03:33:40;96446.09;;;26.92;34.09
31595;BME280;18200;48.726;8.892;2023-06-10T03:37:41;96451.72;;;27.21;34.44
31595;BME280;18200;48.726;8.892;2023-06-10T03:41:42;96460.66;;;27.54;33.47
31595;BME280;18200;48.726;8.892;2023-06-10T03:45:43;96458.13;;;27.04;33.94
31595;BME280;18200;48.726;8.892;2023-06-10T03:49:45;96461.59;;;26.89;35.53
31595;BME280;18200;48.726;8.892;2023-06-10T03:53:46;96463.56;;;27.36;33.93
31595;BME280;18200;48.726;8.892;2023-06-10T03:57:47;96461.28;;;26.64;35.05
31595;BME280;18200;48.726;8.892;2023-06-10T04:01:47;96470.50;;;27.08;35.07
31595;BME280;18200;48.726;8.892;2023-06-10T04:05:48;96469.41;;;27.29;34.98
31595;BME280;18200;48.726;8.892;2023-06-10T04:09:50;96465.13;;;27.28;33.99
31595;BME280;18200;48.726;8.892;2023-06-10T04:13:51;96464.34;;;27.51;34.00
31595;BME280;18200;48.726;8.892;2023-06-10T04:17:52;96463.13;;;27.82;32.92
31595;BME280;18200;48.726;8.892;2023-06-10T04:21:56;96469.13;;;27.95;33.00
31595;BME280;18200;48.726;8.892;2023-06-10T04:25:56;96475.97;;;27.55;34.28
31595;BME280;18200;48.726;8.892;2023-06-10T04:29:58;96479.22;;;27.68;34.57
31595;BME280;18200;48.726;8.892;2023-06-10T04:33:59;96480.41;;;27.38;34.24
31595;BME280;18200;48.726;8.892;2023-06-10T04:38:01;96476.06;;;27.46;34.06
31595;BME280;18200;48.726;8.892;2023-06-10T04:42:04;96476.94;;;27.82;32.48
31595;BME280;18200;48.726;8.892;2023-06-10T04:46:05;96474.28;;;27.87;33.40
31595;BME280;18200;48.726;8.892;2023-06-10T04:50:07;96486.06;;;27.88;33.31
31595;BME280;18200;48.726;8.892;2023-06-10T04:54:07;96472.59;;;28.19;32.69
31595;BME280;18200;48.726;8.892;2023-06-10T04:58:07;96481.81;;;28.16;32.98
31595;BME280;18200;48.726;8.892;2023-06-10T05:02:08;96478.50;;;28.12;32.64
31595;BME280;18200;48.726;8.892;2023-06-10T05:06:08;96478.31;;;28.30;33.12
31595;BME280;18200;48.726;8.892;2023-06-10T05:10:09;96485.19;;;28.69;32.85
31595;BME280;18200;48.726;8.892;2023-06-10T05:14:09;96491.56;;;28.75;32.04
31595;BME280;18200;48.726;8.892;2023-06-10T05:18:10;96487.56;;;28.76;32.80
31595;BME280;18200;48.726;8.892;2023-06-10T05:22:12;96488.66;;;28.84;32.06
31595;BME280;18200;48.726;8.892;2023-06-10T05:26:14;96488.16;;;29.21;31.92
31595;BME280;18200;48.726;8.892;2023-06-10T05:30:14;96486.16;;;29.67;31.40
31595;BME280;18200;48.726;8.892;2023-06-10T05:34:15;96494.19;;;29.85;31.33
31595;BME280;18200;48.726;8.892;2023-06-10T05:38:15;96500.78;;;30.13;31.05
31595;BME280;18200;48.726;8.892;2023-06-10T05:42:16;96500.97;;;30.35;30.44
31595;BME280;18200;48.726;8.892;2023-06-10T05:46:16;96497.03;;;30.47;30.56
31595;BME280;18200;48.726;8.892;2023-06-10T05:50:16;96494.66;;;30.72;30.51
31595;BME280;18200;48.726;8.892;2023-06-10T05:54:17;96502.91;;;30.92;30.12
31595;BME280;18200;48.726;8.892;2023-06-10T05:58:17;96496.94;;;31.10;29.85
31595;BME280;18200;48.726;8.892;2023-06-10T06:02:18;96497.38;;;31.51;29.47
31595;BME280;18200;48.726;8.892;2023-06-10T06:06:19;96500.47;;;31.58;30.15
31595;BME280;18200;48.726;8.892;2023-06-10T06:10:21;96494.91;;;31.69;29.88
31595;BME280;18200;48.726;8.892;2023-06-10T06:14:21;96501.75;;;31.68;30.18
31595;BME280;18200;48.726;8.892;2023-06-10T06:18:22;96509.84;;;31.88;30.09
31595;BME280;18200;48.726;8.892;2023-06-10T06:22:22;96506.03;;;31.64;29.90
31595;BME280;18200;48.726;8.892;2023-06-10T06:26:23;96515.25;;;32.42;29.29
31595;BME280;18200;48.726;8.892;2023-06-10T06:30:23;96508.69;;;32.61;29.22
31595;BME280;18200;48.726;8.892;2023-06-10T06:34:24;96513.47;;;32.94;29.09
31595;BME280;18200;48.726;8.892;2023-06-10T06:38:24;96508.16;;;32.85;29.14
31595;BME280;18200;48.726;8.892;2023-06-10T06:42:25;96509.00;;;33.54;28.26
31595;BME280;18200;48.726;8.892;2023-06-10T06:46:33;96513.88;;;33.89;27.55
31595;BME280;18200;48.726;8.892;2023-06-10T06:50:34;96517.97;;;34.23;28.18
31595;BME280;18200;48.726;8.892;2023-06-10T06:54:34;96522.41;;;33.55;28.28
31595;BME280;18200;48.726;8.892;2023-06-10T06:58:35;96517.72;;;34.26;27.87
31595;BME280;18200;48.726;8.892;2023-06-10T07:02:36;96514.66;;;33.84;28.30
31595;BME280;18200;48.726;8.892;2023-06-10T07:06:36;96513.25;;;34.42;27.76
31595;BME280;18200;48.726;8.892;2023-06-10T07:10:38;96514.38;;;33.87;28.99
31595;BME280;18200;48.726;8.892;2023-06-10T07:14:38;96512.84;;;34.32;28.48
31595;BME280;18200;48.726;8.892;2023-06-10T07:18:39;96516.97;;;34.85;27.45
31595;BME280;18200;48.726;8.892;2023-06-10T07:22:39;96515.69;;;33.81;28.74
31595;BME280;18200;48.726;8.892;2023-06-10T07:26:40;96512.00;;;34.97;27.06
31595;BME280;18200;48.726;8.892;2023-06-10T07:30:40;96512.28;;;35.42;26.25
31595;BME280;18200;48.726;8.892;2023-06-10T07:34:40;96509.19;;;35.88;25.99
31595;BME280;18200;48.726;8.892;2023-06-10T07:38:41;96504.81;;;36.11;25.53
31595;BME280;18200;48.726;8.892;2023-06-10T07:42:42;96511.19;;;36.43;25.13
31595;BME280;18200;48.726;8.892;2023-06-10T07:46:43;96514.59;;;36.68;24.70
31595;BME280;18200;48.726;8.892;2023-06-10T07:50:43;96509.75;;;36.37;24.90
31595;BME280;18200;48.726;8.892;2023-06-10T07:54:44;96508.50;;;36.51;25.09
31595;BME280;18200;48.726;8.892;2023-06-10T07:58:44;96517.31;;;36.74;24.79
31595;BME280;18200;48.726;8.892;2023-06-10T08:02:44;96513.59;;;37.10;24.27
31595;BME280;18200;48.726;8.892;2023-06-10T08:06:45;96507.13;;;37.02;23.78
31595;BME280;18200;48.726;8.892;2023-06-10T08:10:45;96508.09;;;37.18;23.13
31595;BME280;18200;48.726;8.892;2023-06-10T08:14:45;96508.75;;;36.66;24.48
31595;BME280;18200;48.726;8.892;2023-06-10T08:18:47;96514.63;;;35.62;25.76
31595;BME280;18200;48.726;8.892;2023-06-10T08:22:47;96507.81;;;35.57;25.54
31595;BME280;18200;48.726;8.892;2023-06-10T08:26:48;96508.22;;;35.43;26.15
31595;BME280;18200;48.726;8.892;2023-06-10T08:30:48;96502.53;;;35.91;25.31
31595;BME280;18200;48.726;8.892;2023-06-10T08:34:48;96505.41;;;36.04;25.22
31595;BME280;18200;48.726;8.892;2023-06-10T08:38:49;96510.25;;;37.38;22.90
31595;BME280;18200;48.726;8.892;2023-06-10T08:42:55;96510.13;;;35.96;24.87
31595;BME280;18200;48.726;8.892;2023-06-10T08:47:00;96504.34;;;36.07;24.54
31595;BME280;18200;48.726;8.892;2023-06-10T08:51:03;96512.34;;;36.80;24.20
31595;BME280;18200;48.726;8.892;2023-06-10T08:55:11;96517.81;;;37.43;23.24
31595;BME280;18200;48.726;8.892;2023-06-10T08:59:14;96512.22;;;38.37;22.33
31595;BME280;18200;48.726;8.892;2023-06-10T09:03:16;96511.19;;;38.27;22.54
31595;BME280;18200;48.726;8.892;2023-06-10T09:07:17;96513.59;;;38.10;22.37
31595;BME280;18200;48.726;8.892;2023-06-10T09:11:17;96506.19;;;38.33;22.08
31595;BME280;18200;48.726;8.892;2023-06-10T09:15:18;96496.31;;;38.60;22.38
31595;BME280;18200;48.726;8.892;2023-06-10T09:19:18;96506.31;;;38.48;22.04
31595;BME280;18200;48.726;8.892;2023-06-10T09:23:21;96508.84;;;39.28;21.46
31595;BME280;18200;48.726;8.892;2023-06-10T09:27:22;96503.28;;;38.87;21.55
31595;BME280;18200;48.726;8.892;2023-06-10T09:31:22;96501.56;;;38.22;22.35
31595;BME280;18200;48.726;8.892;2023-06-10T09:35:24;96509.66;;;38.26;22.13
31595;BME280;18200;48.726;8.892;2023-06-10T09:39:25;96507.97;;;37.63;23.33
31595;BME280;18200;48.726;8.892;2023-06-10T09:43:42;96500.16;;;39.19;21.32
31595;BME280;18200;48.726;8.892;2023-06-10T09:47:46;96497.06;;;39.09;21.48
31595;BME280;18200;48.726;8.892;2023-06-10T09:51:51;96498.19;;;37.56;22.90
31595;BME280;18200;48.726;8.892;2023-06-10T09:55:52;96496.94;;;37.78;23.23
31595;BME280;18200;48.726;8.892;2023-06-10T09:59:53;96498.03;;;38.84;21.85
31595;BME280;18200;48.726;8.892;2023-06-10T10:03:54;96497.63;;;38.38;21.83
31595;BME280;18200;48.726;8.892;2023-06-10T10:07:55;96499.19;;;38.88;21.97
31595;BME280;18200;48.726;8.892;2023-06-10T10:11:56;96493.56;;;40.61;20.15
31595;BME280;18200;48.726;8.892;2023-06-10T10:15:59;96492.75;;;39.36;21.73
31595;BME280;18200;48.726;8.892;2023-06-10T10:20:03;96492.19;;;38.20;22.18
31595;BME280;18200;48.726;8.892;2023-06-10T10:24:18;96477.81;;;39.49;20.82
31595;BME280;18200;48.726;8.892;2023-06-10T10:28:24;96485.88;;;39.88;19.96
31595;BME280;18200;48.726;8.892;2023-06-10T10:32:38;96485.00;;;40.01;20.44
31595;BME280;18200;48.726;8.892;2023-06-10T10:36:41;96486.19;;;39.70;21.03
31595;BME280;18200;48.726;8.892;2023-06-10T10:40:43;96489.72;;;38.99;21.95
31595;BME280;18200;48.726;8.892;2023-06-10T10:44:45;96486.78;;;40.49;19.84
31595;BME280;18200;48.726;8.892;2023-06-10T10:48:52;96483.41;;;40.58;19.41
31595;BME280;18200;48.726;8.892;2023-06-10T10:52:54;96479.25;;;41.27;18.02
31595;BME280;18200;48.726;8.892;2023-06-10T10:57:17;96475.53;;;40.94;18.62
31595;BME280;18200;48.726;8.892;2023-06-10T11:01:18;96479.47;;;39.44;20.63
31595;BME280;18200;48.726;8.892;2023-06-10T11:05:31;96474.91;;;39.26;21.27
31595;BME280;18200;48.726;8.892;2023-06-10T11:09:32;96478.69;;;39.08;21.44
31595;BME280;18200;48.726;8.892;2023-06-10T11:13:32;96474.94;;;38.77;21.96
31595;BME280;18200;48.726;8.892;2023-06-10T11:17:33;96474.25;;;38.23;21.59
31595;BME280;18200;48.726;8.892;2023-06-10T11:21:56;96475.03;;;37.89;22.07
31595;BME280;18200;48.726;8.892;2023-06-10T11:26:29;96464.41;;;40.36;19.56
31595;BME280;18200;48.726;8.892;2023-06-10T11:30:34;96467.25;;;40.74;19.62
31595;BME280;18200;48.726;8.892;2023-06-10T11:34:35;96467.59;;;39.67;20.54
31595;BME280;18200;48.726;8.892;2023-06-10T11:38:36;96471.38;;;40.73;19.40
31595;BME280;18200;48.726;8.892;2023-06-10T11:42:40;96464.44;;;42.63;18.08
31595;BME280;18200;48.726;8.892;2023-06-10T11:46:42;96467.06;;;42.86;17.67
31595;BME280;18200;48.726;8.892;2023-06-10T11:50:42;96454.09;;;42.01;18.12
31595;BME280;18200;48.726;8.892;2023-06-10T11:54:53;96454.66;;;40.45;19.62
31595;BME280;18200;48.726;8.892;2023-06-10T11:59:04;96455.56;;;40.17;20.51
31595;BME280;18200;48.726;8.892;2023-06-10T12:03:07;96453.47;;;41.31;18.34
31595;BME280;18200;48.726;8.892;2023-06-10T12:07:07;96453.78;;;41.90;18.67
31595;BME280;18200;48.726;8.892;2023-06-10T12:11:08;96453.97;;;42.73;18.34
31595;BME280;18200;48.726;8.892;2023-06-10T12:15:09;96443.94;;;40.28;19.83
31595;BME280;18200;48.726;8.892;2023-06-10T12:19:09;96456.34;;;39.67;20.60
31595;BME280;18200;48.726;8.892;2023-06-10T12:23:10;96445.44;;;40.37;19.58
31595;BME280;18200;48.726;8.892;2023-06-10T12:27:11;96447.59;;;41.36;18.87
31595;BME280;18200;48.726;8.892;2023-06-10T12:31:12;96442.00;;;41.29;18.46
31595;BME280;18200;48.726;8.892;2023-06-10T12:35:24;96449.59;;;40.88;19.05
31595;BME280;18200;48.726;8.892;2023-06-10T12:39:24;96455.06;;;41.49;18.90
31595;BME280;18200;48.726;8.892;2023-06-10T12:43:25;96445.88;;;42.53;17.70
31595;BME280;18200;48.726;8.892;2023-06-10T12:47:30;96445.66;;;40.46;20.23
31595;BME280;18200;48.726;8.892;2023-06-10T12:51:32;96441.63;;;41.17;18.90
31595;BME280;18200;48.726;8.892;2023-06-10T12:55:33;96438.34;;;43.31;16.48
31595;BME280;18200;48.726;8.892;2023-06-10T12:59:33;96435.56;;;44.74;15.86
31595;BME280;18200;48.726;8.892;2023-06-10T13:03:34;96437.66;;;43.57;17.25
31595;BME280;18200;48.726;8.892;2023-06-10T13:07:34;96430.94;;;42.77;16.71
31595;BME280;18200;48.726;8.892;2023-06-10T13:11:34;96439.13;;;42.40;17.48
31595;BME280;18200;48.726;8.892;2023-06-10T13:15:35;96438.53;;;41.53;17.84
31595;BME280;18200;48.726;8.892;2023-06-10T13:19:38;96436.97;;;41.99;17.71
31595;BME280;18200;48.726;8.892;2023-06-10T13:23:38;96419.59;;;41.78;17.51
31595;BME280;18200;48.726;8.892;2023-06-10T13:27:39;96418.75;;;42.50;17.54
31595;BME280;18200;48.726;8.892;2023-06-10T13:31:40;96419.91;;;40.35;18.95
31595;BME280;18200;48.726;8.892;2023-06-10T13:35:40;96419.09;;;39.96;19.38
31595;BME280;18200;48.726;8.892;2023-06-10T13:39:41;96412.69;;;41.96;18.05
31595;BME280;18200;48.726;8.892;2023-06-10T13:43:41;96413.88;;;40.68;18.92
31595;BME280;18200;48.726;8.892;2023-06-10T13:47:42;96420.59;;;39.97;19.98
31595;BME280;18200;48.726;8.892;2023-06-10T13:51:42;96416.88;;;40.70;19.53
31595;BME280;18200;48.726;8.892;2023-06-10T13:55:43;96413.16;;;40.60;19.05
31595;BME280;18200;48.726;8.892;2023-06-10T13:59:43;96408.88;;;40.44;18.57
31595;BME280;18200;48.726;8.892;2023-06-10T14:03:44;96414.25;;;41.90;17.95
31595;BME280;18200;48.726;8.892;2023-06-10T14:07:44;96398.81;;;42.47;17.41
31595;BME280;18200;48.726;8.892;2023-06-10T14:11:44;96394.38;;;40.48;19.38
31595;BME280;18200;48.726;8.892;2023-06-10T14:15:45;96389.75;;;42.91;17.10
31595;BME280;18200;48.726;8.892;2023-06-10T14:19:45;96395.75;;;44.36;16.02
31595;BME280;18200;48.726;8.892;2023-06-10T14:23:46;96389.00;;;45.54;14.91
31595;BME280;18200;48.726;8.892;2023-06-10T14:27:46;96385.38;;;43.41;16.43
31595;BME280;18200;48.726;8.892;2023-06-10T14:31:47;96390.53;;;42.42;16.79
31595;BME280;18200;48.726;8.892;2023-06-10T14:35:47;96388.41;;;43.26;15.76
31595;BME280;18200;48.726;8.892;2023-06-10T14:39:48;96381.91;;;42.40;16.34
31595;BME280;18200;48.726;8.892;2023-06-10T14:43:48;96375.81;;;41.62;17.80
31595;BME280;18200;48.726;8.892;2023-06-10T14:47:48;96371.00;;;42.36;17.03
31595;BME280;18200;48.726;8.892;2023-06-10T14:51:48;96373.44;;;44.13;15.79
31595;BME280;18200;48.726;8.892;2023-06-10T14:55:50;96368.88;;;42.44;17.11
31595;BME280;18200;48.726;8.892;2023-06-10T14:59:50;96366.09;;;42.62;17.41
31595;BME280;18200;48.726;8.892;2023-06-10T15:03:50;96375.25;;;43.38;16.14
31595;BME280;18200;48.726;8.892;2023-06-10T15:07:51;96371.69;;;41.95;17.41
31595;BME280;18200;48.726;8.892;2023-06-10T15:11:51;96371.78;;;41.80;17.83
31595;BME280;18200;48.726;8.892;2023-06-10T15:15:51;96362.97;;;42.01;17.25
31595;BME280;18200;48.726;8.892;2023-06-10T15:19:52;96361.47;;;44.05;15.99
31595;BME280;18200;48.726;8.892;2023-06-10T15:23:53;96362.72;;;44.67;14.67
31595;BME280;18200;48.726;8.892;2023-06-10T15:27:53;96356.72;;;44.08;15.66
31595;BME280;18200;48.726;8.892;2023-06-10T15:31:53;96363.44;;;42.81;16.59
31595;BME280;18200;48.726;8.892;2023-06-10T15:35:54;96356.88;;;42.36;17.34
31595;BME280;18200;48.726;8.892;2023-06-10T15:39:54;96357.78;;;42.81;16.44
31595;BME280;18200;48.726;8.892;2023-06-10T15:43:55;96343.25;;;42.25;18.49
31595;BME280;18200;48.726;8.892;2023-06-10T15:47:55;96349.19;;;44.29;16.22
31595;BME280;18200;48.726;8.892;2023-06-10T15:51:56;96357.53;;;43.64;16.07
31595;BME280;18200;48.726;8.892;2023-06-10T15:55:56;96348.56;;;42.38;17.58
31595;BME280;18200;48.726;8.892;2023-06-10T15:59:56;96346.72;;;43.53;16.17
31595;BME280;18200;48.726;8.892;2023-06-10T16:03:57;96348.25;;;42.10;17.40
31595;BME280;18200;48.726;8.892;2023-06-10T16:07:57;96342.22;;;43.06;16.92
31595;BME280;18200;48.726;8.892;2023-06-10T16:11:58;96346.13;;;43.11;17.10
31595;BME280;18200;48.726;8.892;2023-06-10T16:15:58;96354.09;;;44.29;15.48
31595;BME280;18200;48.726;8.892;2023-06-10T16:19:58;96346.13;;;42.94;17.37
31595;BME280;18200;48.726;8.892;2023-06-10T16:23:59;96346.81;;;43.19;16.76
31595;BME280;18200;48.726;8.892;2023-06-10T16:28:00;96347.03;;;44.56;15.84
31595;BME280;18200;48.726;8.892;2023-06-10T16:32:02;96347.84;;;44.95;15.20
31595;BME280;18200;48.726;8.892;2023-06-10T16:36:02;96349.94;;;44.30;15.57
31595;BME280;18200;48.726;8.892;2023-06-10T16:40:03;96349.47;;;42.83;16.81
31595;BME280;18200;48.726;8.892;2023-06-10T16:44:04;96343.13;;;44.42;15.98
31595;BME280;18200;48.726;8.892;2023-06-10T16:48:04;96349.72;;;43.72;15.88
31595;BME280;18200;48.726;8.892;2023-06-10T16:52:06;96343.03;;;45.07;15.79
31595;BME280;18200;48.726;8.892;2023-06-10T16:56:06;96344.22;;;45.43;15.00
31595;BME280;18200;48.726;8.892;2023-06-10T17:00:07;96355.28;;;44.81;15.24
31595;BME280;18200;48.726;8.892;2023-06-10T17:04:08;96358.00;;;42.58;16.06
31595;BME280;18200;48.726;8.892;2023-06-10T17:08:08;96369.38;;;43.53;15.19
31595;BME280;18200;48.726;8.892;2023-06-10T17:12:09;96365.84;;;43.36;15.19
31595;BME280;18200;48.726;8.892;2023-06-10T17:16:10;96362.19;;;42.57;16.39
31595;BME280;18200;48.726;8.892;2023-06-10T17:20:10;96373.00;;;42.85;17.07
31595;BME280;18200;48.726;8.892;2023-06-10T17:24:11;96379.69;;;44.12;16.14
31595;BME280;18200;48.726;8.892;2023-06-10T17:28:11;96375.94;;;44.45;15.66
31595;BME280;18200;48.726;8.892;2023-06-10T17:32:12;96379.97;;;43.79;16.57
31595;BME280;18200;48.726;8.892;2023-06-10T17:36:12;96379.47;;;43.64;16.45
31595;BME280;18200;48.726;8.892;2023-06-10T17:40:12;96378.59;;;42.93;16.81
31595;BME280;18200;48.726;8.892;2023-06-10T17:44:13;96382.44;;;41.57;18.22
31595;BME280;18200;48.726;8.892;2023-06-10T17:48:16;96390.63;;;40.60;18.77
31595;BME280;18200;48.726;8.892;2023-06-10T17:52:16;96385.06;;;42.19;17.91
31595;BME280;18200;48.726;8.892;2023-06-10T17:56:16;96396.59;;;42.38;17.70
31595;BME280;18200;48.726;8.892;2023-06-10T18:00:17;96390.88;;;42.21;18.39
31595;BME280;18200;48.726;8.892;2023-06-10T18:04:17;96392.34;;;42.05;18.00
31595;BME280;18200;48.726;8.892;2023-06-10T18:08:18;96392.59;;;41.92;17.96
31595;BME280;18200;48.726;8.892;2023-06-10T18:12:18;96398.13;;;40.58;18.84
31595;BME280;18200;48.726;8.892;2023-06-10T18:16:19;96406.66;;;41.13;18.57
31595;BME280;18200;48.726;8.892;2023-06-10T18:20:19;96406.03;;;40.59;19.55
31595;BME280;18200;48.726;8.892;2023-06-10T18:24:20;96402.97;;;40.87;18.65
31595;BME280;18200;48.726;8.892;2023-06-10T18:28:21;96407.97;;;42.31;18.10
31595;BME280;18200;48.726;8.892;2023-06-10T18:32:21;96404.84;;;41.87;18.33
31595;BME280;18200;48.726;8.892;2023-06-10T18:36:21;96419.47;;;41.61;18.87
31595;BME280;18200;48.726;8.892;2023-06-10T18:40:22;96418.41;;;40.26;19.69
31595;BME280;18200;48.726;8.892;2023-06-10T18:44:22;96422.94;;;40.59;19.07
31595;BME280;18200;48.726;8.892;2023-06-10T18:48:23;96429.88;;;40.88;18.73
31595;BME280;18200;48.726;8.892;2023-06-10T18:52:23;96434.53;;;40.93;19.03
31595;BME280;18200;48.726;8.892;2023-06-10T18:56:24;96440.94;;;40.49;19.35
31595;BME280;18200;48.726;8.892;2023-06-10T19:00:25;96448.84;;;40.50;19.60
31595;BME280;18200;48.726;8.892;2023-06-10T19:04:25;96451.06;;;40.29;19.45
31595;BME280;18200;48.726;8.892;2023-06-10T19:08:26;96454.78;;;40.09;19.66
31595;BME280;18200;48.726;8.892;2023-06-10T19:12:27;96461.63;;;40.51;19.64
31595;BME280;18200;48.726;8.892;2023-06-10T19:16:27;96460.56;;;39.45;20.53
31595;BME280;18200;48.726;8.892;2023-06-10T19:20:27;96466.84;;;40.32;19.17
31595;BME280;18200;48.726;8.892;2023-06-10T19:24:28;96473.78;;;40.31;19.42
31595;BME280;18200;48.726;8.892;2023-06-10T19:28:29;96476.41;;;40.14;19.53
31595;BME280;18200;48.726;8.892;2023-06-10T19:32:29;96479.06;;;39.69;20.21
31595;BME280;18200;48.726;8.892;2023-06-10T19:36:30;96481.72;;;39.82;19.74
31595;BME280;18200;48.726;8.892;2023-06-10T19:40:30;96483.41;;;39.85;19.63
31595;BME280;18200;48.726;8.892;2023-06-10T19:44:30;96484.66;;;38.97;20.47
31595;BME280;18200;48.726;8.892;2023-06-10T19:48:31;96493.06;;;39.25;20.37
31595;BME280;18200;48.726;8.892;2023-06-10T19:52:31;96492.38;;;39.32;20.52
31595;BME280;18200;48.726;8.892;2023-06-10T19:56:32;96505.69;;;39.04;20.55
31595;BME280;18200;48.726;8.892;2023-06-10T20:00:32;96499.72;;;38.66;21.34
31595;BME280;18200;48.726;8.892;2023-06-10T20:04:33;96517.59;;;38.14;21.93
31595;BME280;18200;48.726;8.892;2023-06-10T20:08:34;96517.00;;;38.70;21.50
31595;BME280;18200;48.726;8.892;2023-06-10T20:12:35;96525.69;;;38.38;21.79
31595;BME280;18200;48.726;8.892;2023-06-10T20:16:35;96520.97;;;38.54;21.30
31595;BME280;18200;48.726;8.892;2023-06-10T20:20:35;96532.16;;;38.67;21.45
31595;BME280;18200;48.726;8.892;2023-06-10T20:24:36;96539.25;;;38.47;21.77
31595;BME280;18200;48.726;8.892;2023-06-10T20:28:37;96548.72;;;38.37;22.27
31595;BME280;18200;48.726;8.892;2023-06-10T20:32:37;96542.88;;;38.35;21.99
31595;BME280;18200;48.726;8.892;2023-06-10T20:36:38;96545.38;;;37.91;22.60
31595;BME280;18200;48.726;8.892;2023-06-10T20:40:38;96550.16;;;38.17;22.28
31595;BME280;18200;48.726;8.892;2023-06-10T20:44:41;96564.22;;;36.99;23.60
31595;BME280;18200;48.726;8.892;2023-06-10T20:48:42;96559.31;;;36.74;24.29
31595;BME280;18200;48.726;8.892;2023-06-10T20:52:42;96559.22;;;37.37;23.80
31595;BME280;18200;48.726;8.892;2023-06-10T20:56:42;96557.88;;;37.25;23.59
31595;BME280;18200;48.726;8.892;2023-06-10T21:00:44;96569.13;;;37.51;23.50
31595;BME280;18200;48.726;8.892;2023-06-10T21:04:45;96555.81;;;36.54;24.45
31595;BME280;18200;48.726;8.892;2023-06-10T21:08:45;96558.16;;;36.50;25.02
31595;BME280;18200;48.726;8.892;2023-06-10T21:12:46;96563.56;;;36.62;24.82
31595;BME280;18200;48.726;8.892;2023-06-10T21:16:46;96556.09;;;36.01;25.69
31595;BME280;18200;48.726;8.892;2023-06-10T21:20:47;96568.47;;;36.42;25.11